createdAt,value
2024-02-26T00:00:46.795Z,1.60
2024-02-26T00:01:46.986Z,1.58
2024-02-26T00:02:46.680Z,1.58
2024-02-26T00:03:46.615Z,1.56
2024-02-26T00:04:46.559Z,1.55
2024-02-26T00:05:46.584Z,1.49
2024-02-26T00:06:46.858Z,1.55
2024-02-26T00:07:46.447Z,1.49
2024-02-26T00:08:46.471Z,1.55
2024-02-26T00:09:46.368Z,1.49
2024-02-26T00:10:46.394Z,1.59
2024-02-26T00:11:46.606Z,1.44
2024-02-26T00:12:46.254Z,1.41
2024-02-26T00:13:46.221Z,1.31
2024-02-26T00:14:46.210Z,1.31
2024-02-26T00:15:46.161Z,1.26
2024-02-26T00:16:46.406Z,1.22
2024-02-26T00:17:46.173Z,1.23
2024-02-26T00:18:48.864Z,1.20
2024-02-26T00:19:46.062Z,1.01
2024-02-26T00:20:45.976Z,1.08
2024-02-26T00:21:45.952Z,0.86
2024-02-26T00:22:45.872Z,0.91
2024-02-26T00:23:45.897Z,0.92
2024-02-26T00:24:45.793Z,0.88
2024-02-26T00:25:45.760Z,0.91
2024-02-26T00:26:46.012Z,0.88
2024-02-26T00:27:45.679Z,0.87
2024-02-26T00:28:45.654Z,0.87
2024-02-26T00:29:45.631Z,0.91
2024-02-26T00:30:45.561Z,0.92
2024-02-26T00:31:45.835Z,0.91
2024-02-26T00:32:45.535Z,0.92
2024-02-26T00:33:45.612Z,0.96
2024-02-26T00:34:45.433Z,0.91
2024-02-26T00:35:45.667Z,0.92
2024-02-26T00:36:45.366Z,0.88
2024-02-26T00:37:45.301Z,0.95
2024-02-26T00:38:45.281Z,0.88
2024-02-26T00:39:45.236Z,0.84
2024-02-26T00:40:45.456Z,0.84
2024-02-26T00:41:45.168Z,0.84
2024-02-26T00:42:45.098Z,0.76
2024-02-26T00:43:45.065Z,0.77
2024-02-26T00:44:45.074Z,0.76
2024-02-26T00:45:45.270Z,0.69
2024-02-26T00:46:44.961Z,0.73
2024-02-26T00:47:44.950Z,0.66
2024-02-26T00:48:45.030Z,0.76
2024-02-26T00:49:44.989Z,0.73
2024-02-26T00:50:45.211Z,0.66
2024-02-26T00:51:44.764Z,0.69
2024-02-26T00:52:44.728Z,0.68
2024-02-26T00:53:44.743Z,0.80
2024-02-26T00:54:44.639Z,0.78
2024-02-26T00:55:44.897Z,0.69
2024-02-26T00:56:44.652Z,0.74
2024-02-26T00:57:44.540Z,0.74
2024-02-26T00:58:44.484Z,0.69
2024-02-26T00:59:44.465Z,0.63
2024-02-26T01:00:44.747Z,0.60
2024-02-26T01:01:44.373Z,0.65
2024-02-26T01:02:44.459Z,0.52
2024-02-26T01:03:50.391Z,0.49
2024-02-26T01:04:44.248Z,0.58
2024-02-26T01:05:44.582Z,0.59
2024-02-26T01:06:44.264Z,0.49
2024-02-26T01:07:44.194Z,0.59
2024-02-26T01:08:44.178Z,0.68
2024-02-26T01:09:44.072Z,0.73
2024-02-26T01:10:44.371Z,0.65
2024-02-26T01:11:43.999Z,0.73
2024-02-26T01:12:43.943Z,0.70
2024-02-26T01:13:43.916Z,0.65
2024-02-26T01:14:44.390Z,0.65
2024-02-26T01:15:44.102Z,0.59
2024-02-26T01:16:43.792Z,0.58
2024-02-26T01:17:43.918Z,0.52
2024-02-26T01:18:43.812Z,0.47
2024-02-26T01:19:43.703Z,0.43
2024-02-26T01:20:43.946Z,0.37
2024-02-26T01:21:43.588Z,0.43
2024-02-26T01:22:43.555Z,0.43
2024-02-26T01:23:43.535Z,0.32
2024-02-26T01:24:43.506Z,0.32
2024-02-26T01:25:43.430Z,0.39
2024-02-26T01:26:43.714Z,0.31
2024-02-26T01:27:43.360Z,0.36
2024-02-26T01:28:43.320Z,0.32
2024-02-26T01:29:43.306Z,0.40
2024-02-26T01:30:43.529Z,0.22
2024-02-26T01:31:43.200Z,0.23
2024-02-26T01:32:43.234Z,0.40
2024-02-26T01:33:43.272Z,0.36
2024-02-26T01:34:43.176Z,0.29
2024-02-26T01:35:43.353Z,0.46
2024-02-26T01:36:43.032Z,0.40
2024-02-26T01:37:42.964Z,0.41
2024-02-26T01:38:43.002Z,0.46
2024-02-26T01:39:43.069Z,0.47
2024-02-26T01:40:43.134Z,0.47
2024-02-26T01:41:42.912Z,0.49
2024-02-26T01:42:42.787Z,0.47
2024-02-26T01:43:42.737Z,0.59
2024-02-26T01:44:42.717Z,0.60
2024-02-26T01:45:42.950Z,0.55
2024-02-26T01:46:43.505Z,0.47
2024-02-26T01:47:45.212Z,0.47
2024-02-26T01:48:42.673Z,0.46
2024-02-26T01:49:42.544Z,0.46
2024-02-26T01:50:42.580Z,0.49
2024-02-26T01:51:42.728Z,0.52
2024-02-26T01:52:42.399Z,0.55
2024-02-26T01:53:42.406Z,0.55
2024-02-26T01:54:42.311Z,0.47
2024-02-26T01:55:42.322Z,0.55
2024-02-26T01:56:42.563Z,0.58
2024-02-26T01:57:42.185Z,0.63
2024-02-26T01:58:42.153Z,0.59
2024-02-26T01:59:42.133Z,0.59
2024-02-26T02:00:42.153Z,0.58
2024-02-26T02:01:42.381Z,0.65
2024-02-26T02:02:42.016Z,0.73
2024-02-26T02:03:42.011Z,0.84
2024-02-26T02:04:41.991Z,0.91
2024-02-26T02:05:41.914Z,0.95
2024-02-26T02:06:42.200Z,1.08
2024-02-26T02:07:41.825Z,1.04
2024-02-26T02:08:41.803Z,1.08
2024-02-26T02:09:41.737Z,1.04
2024-02-26T02:10:41.708Z,1.06
2024-02-26T02:11:41.737Z,1.12
2024-02-26T02:12:41.619Z,1.02
2024-02-26T02:13:41.580Z,0.87
2024-02-26T02:14:41.548Z,0.91
2024-02-26T02:15:41.805Z,0.92
2024-02-26T02:16:41.453Z,0.96
2024-02-26T02:17:41.621Z,0.92
2024-02-26T02:18:41.534Z,0.87
2024-02-26T02:19:41.362Z,0.83
2024-02-26T02:20:41.627Z,0.80
2024-02-26T02:21:41.295Z,0.78
2024-02-26T02:22:41.224Z,0.77
2024-02-26T02:23:41.186Z,0.65
2024-02-26T02:24:41.140Z,0.62
2024-02-26T02:25:41.396Z,0.62
2024-02-26T02:26:41.095Z,0.58
2024-02-26T02:27:41.017Z,0.55
2024-02-26T02:28:40.990Z,0.63
2024-02-26T02:29:40.999Z,0.56
2024-02-26T02:30:41.218Z,0.52
2024-02-26T02:31:41.010Z,0.46
2024-02-26T02:32:40.933Z,0.55
2024-02-26T02:33:40.909Z,0.47
2024-02-26T02:34:40.759Z,0.44
2024-02-26T02:35:40.750Z,0.40
2024-02-26T02:36:40.673Z,0.44
2024-02-26T02:37:40.634Z,0.39
2024-02-26T02:38:40.609Z,0.26
2024-02-26T02:39:40.562Z,0.32
2024-02-26T02:40:40.802Z,0.28
2024-02-26T02:41:40.503Z,0.28
2024-02-26T02:42:40.439Z,0.40
2024-02-26T02:43:40.399Z,0.36
2024-02-26T02:44:40.389Z,0.40
2024-02-26T02:45:40.611Z,0.47
2024-02-26T02:46:40.282Z,0.41
2024-02-26T02:47:40.319Z,0.32
2024-02-26T02:48:40.339Z,0.36
2024-02-26T02:49:40.201Z,0.34
2024-02-26T02:50:40.452Z,0.37
2024-02-26T02:51:40.087Z,0.37
2024-02-26T02:52:40.074Z,0.32
2024-02-26T02:53:40.075Z,0.26
2024-02-26T02:54:39.982Z,0.26
2024-02-26T02:55:40.245Z,0.28
2024-02-26T02:56:39.981Z,0.31
2024-02-26T02:57:39.858Z,0.29
2024-02-26T02:58:39.826Z,0.34
2024-02-26T02:59:39.832Z,0.44
2024-02-26T03:00:39.912Z,0.41
2024-02-26T03:01:39.742Z,0.43
2024-02-26T03:02:39.706Z,0.49
2024-02-26T03:03:39.626Z,0.39
2024-02-26T03:04:39.620Z,0.47
2024-02-26T03:05:39.936Z,0.52
2024-02-26T03:06:39.587Z,0.46
2024-02-26T03:07:39.459Z,0.60
2024-02-26T03:08:47.102Z,0.58
2024-02-26T03:09:39.387Z,0.49
2024-02-26T03:10:39.629Z,0.56
2024-02-26T03:11:39.407Z,0.52
2024-02-26T03:12:39.277Z,0.66
2024-02-26T03:13:39.230Z,0.69
2024-02-26T03:14:39.244Z,0.80
2024-02-26T03:15:39.473Z,0.86
2024-02-26T03:16:39.123Z,0.88
2024-02-26T03:17:39.106Z,0.88
2024-02-26T03:18:39.156Z,0.91
2024-02-26T03:19:39.067Z,0.88
2024-02-26T03:20:39.275Z,0.92
2024-02-26T03:21:38.933Z,1.01
2024-02-26T03:22:38.878Z,1.01
2024-02-26T03:23:38.841Z,0.98
2024-02-26T03:24:38.806Z,0.94
2024-02-26T03:25:39.037Z,1.01
2024-02-26T03:26:38.720Z,0.95
2024-02-26T03:27:38.701Z,0.98
2024-02-26T03:28:38.648Z,1.02
2024-02-26T03:29:38.611Z,1.02
2024-02-26T03:30:38.837Z,1.01
2024-02-26T03:31:38.535Z,0.98
2024-02-26T03:32:38.601Z,1.06
2024-02-26T03:33:38.761Z,1.12
2024-02-26T03:34:38.644Z,1.02
2024-02-26T03:35:38.648Z,1.12
2024-02-26T03:36:38.399Z,0.99
2024-02-26T03:37:38.411Z,1.08
2024-02-26T03:38:38.272Z,0.92
2024-02-26T03:39:38.216Z,0.91
2024-02-26T03:40:38.449Z,0.91
2024-02-26T03:41:38.185Z,1.01
2024-02-26T03:42:38.101Z,1.10
2024-02-26T03:43:38.077Z,1.16
2024-02-26T03:44:38.027Z,1.14
2024-02-26T03:45:38.289Z,1.24
2024-02-26T03:46:37.952Z,1.34
2024-02-26T03:47:38.010Z,1.34
2024-02-26T03:48:38.025Z,1.40
2024-02-26T03:49:37.963Z,1.44
2024-02-26T03:50:38.064Z,1.52
2024-02-26T03:51:37.749Z,1.48
2024-02-26T03:52:37.718Z,1.62
2024-02-26T03:53:37.681Z,1.52
2024-02-26T03:54:37.634Z,1.55
2024-02-26T03:55:37.877Z,1.53
2024-02-26T03:56:37.555Z,1.55
2024-02-26T03:57:37.521Z,1.58
2024-02-26T03:58:37.491Z,1.55
2024-02-26T03:59:37.449Z,1.53
2024-02-26T04:00:37.808Z,1.55
2024-02-26T04:01:37.364Z,1.59
2024-02-26T04:02:38.051Z,1.67
2024-02-26T04:03:37.286Z,1.74
2024-02-26T04:04:37.297Z,1.68
2024-02-26T04:05:37.507Z,1.70
2024-02-26T04:06:37.280Z,1.78
2024-02-26T04:07:37.130Z,1.74
2024-02-26T04:08:37.091Z,1.71
2024-02-26T04:09:37.055Z,1.62
2024-02-26T04:10:37.303Z,1.66
2024-02-26T04:11:36.976Z,1.67
2024-02-26T04:12:36.959Z,1.67
2024-02-26T04:13:36.906Z,1.73
2024-02-26T04:14:36.862Z,1.63
2024-02-26T04:15:37.108Z,1.58
2024-02-26T04:16:37.070Z,1.58
2024-02-26T04:17:36.779Z,1.60
2024-02-26T04:18:36.846Z,1.66
2024-02-26T04:19:36.745Z,1.66
2024-02-26T04:20:36.932Z,1.62
2024-02-26T04:21:36.675Z,1.58
2024-02-26T04:22:36.591Z,1.55
2024-02-26T04:23:36.540Z,1.59
2024-02-26T04:24:36.477Z,1.58
2024-02-26T04:25:36.713Z,1.60
2024-02-26T04:26:36.401Z,1.60
2024-02-26T04:27:36.376Z,1.60
2024-02-26T04:28:36.338Z,1.70
2024-02-26T04:29:36.287Z,1.70
2024-02-26T04:30:37.155Z,1.74
2024-02-26T04:31:36.209Z,1.68
2024-02-26T04:32:36.290Z,1.73
2024-02-26T04:33:36.403Z,1.70
2024-02-26T04:34:36.141Z,1.71
2024-02-26T04:35:36.321Z,1.68
2024-02-26T04:36:36.013Z,1.67
2024-02-26T04:37:35.993Z,1.70
2024-02-26T04:38:35.945Z,1.74
2024-02-26T04:39:35.904Z,1.70
2024-02-26T04:40:36.157Z,1.68
2024-02-26T04:41:35.821Z,1.70
2024-02-26T04:42:35.786Z,1.76
2024-02-26T04:43:35.746Z,1.73
2024-02-26T04:44:35.729Z,1.60
2024-02-26T04:45:35.943Z,1.67
2024-02-26T04:46:35.646Z,1.71
2024-02-26T04:47:35.613Z,1.74
2024-02-26T04:48:35.707Z,1.71
2024-02-26T04:49:35.587Z,1.68
2024-02-26T04:50:35.750Z,1.70
2024-02-26T04:51:35.450Z,1.71
2024-02-26T04:52:35.398Z,1.73
2024-02-26T04:53:35.366Z,1.85
2024-02-26T04:54:35.335Z,1.76
2024-02-26T04:55:35.573Z,1.80
2024-02-26T04:56:35.260Z,1.76
2024-02-26T04:57:35.288Z,1.81
2024-02-26T04:58:35.169Z,1.76
2024-02-26T04:59:35.139Z,1.76
2024-02-26T05:00:35.434Z,1.73
2024-02-26T05:01:35.132Z,1.73
2024-02-26T05:02:35.018Z,1.70
2024-02-26T05:03:37.227Z,1.73
2024-02-26T05:04:34.991Z,1.63
2024-02-26T05:05:35.184Z,1.56
2024-02-26T05:06:34.951Z,1.53
2024-02-26T05:07:34.839Z,1.50
2024-02-26T05:08:34.806Z,1.44
2024-02-26T05:09:36.546Z,1.32
2024-02-26T05:10:34.989Z,1.30
2024-02-26T05:11:34.691Z,1.26
2024-02-26T05:12:34.666Z,1.24
2024-02-26T05:13:34.609Z,1.19
2024-02-26T05:14:38.584Z,1.12
2024-02-26T05:15:34.940Z,1.19
2024-02-26T05:16:34.513Z,1.12
2024-02-26T05:17:34.446Z,1.02
2024-02-26T05:18:34.525Z,1.06
2024-02-26T05:19:34.420Z,1.06
2024-02-26T05:20:34.610Z,0.98
2024-02-26T05:21:34.312Z,1.02
2024-02-26T05:22:34.255Z,0.87
2024-02-26T05:23:34.209Z,0.95
2024-02-26T05:24:34.201Z,0.84
2024-02-26T05:25:34.408Z,0.86
2024-02-26T05:26:34.111Z,0.78
2024-02-26T05:27:34.066Z,0.83
2024-02-26T05:28:34.036Z,0.91
2024-02-26T05:29:33.976Z,0.99
2024-02-26T05:30:34.250Z,1.04
2024-02-26T05:31:33.931Z,1.05
2024-02-26T05:32:33.967Z,1.01
2024-02-26T05:33:34.035Z,1.04
2024-02-26T05:34:33.927Z,1.10
2024-02-26T05:35:34.136Z,1.04
2024-02-26T05:36:33.729Z,1.13
2024-02-26T05:37:33.673Z,1.05
2024-02-26T05:38:33.656Z,1.08
2024-02-26T05:39:33.624Z,1.05
2024-02-26T05:40:33.841Z,1.12
2024-02-26T05:41:33.517Z,1.02
2024-02-26T05:42:33.508Z,1.10
2024-02-26T05:43:33.446Z,0.95
2024-02-26T05:44:33.427Z,0.92
2024-02-26T05:45:33.730Z,1.02
2024-02-26T05:46:33.331Z,1.01
2024-02-26T05:47:33.318Z,1.04
2024-02-26T05:48:33.392Z,1.04
2024-02-26T05:49:33.252Z,1.04
2024-02-26T05:50:33.453Z,1.06
2024-02-26T05:51:33.181Z,1.04
2024-02-26T05:52:33.106Z,1.06
2024-02-26T05:53:33.069Z,1.06
2024-02-26T05:54:33.086Z,0.98
2024-02-26T05:55:33.268Z,0.99
2024-02-26T05:56:32.954Z,0.98
2024-02-26T05:57:32.982Z,1.05
2024-02-26T05:58:32.867Z,0.96
2024-02-26T05:59:32.846Z,1.02
2024-02-26T06:00:33.200Z,0.91
2024-02-26T06:01:32.775Z,0.92
2024-02-26T06:02:32.714Z,0.88
2024-02-26T06:03:32.766Z,0.91
2024-02-26T06:04:32.683Z,0.94
2024-02-26T06:05:32.962Z,0.96
2024-02-26T06:06:32.653Z,0.98
2024-02-26T06:07:32.514Z,1.05
2024-02-26T06:08:32.486Z,1.04
2024-02-26T06:09:32.520Z,1.08
2024-02-26T06:10:32.685Z,1.05
2024-02-26T06:11:32.402Z,1.14
2024-02-26T06:12:32.427Z,1.08
2024-02-26T06:13:32.284Z,1.20
2024-02-26T06:14:32.249Z,1.45
2024-02-26T06:15:32.336Z,1.50
2024-02-26T06:16:32.170Z,1.60
2024-02-26T06:17:32.154Z,1.56
2024-02-26T06:18:32.308Z,1.73
2024-02-26T06:19:32.149Z,1.68
2024-02-26T06:20:32.297Z,1.67
2024-02-26T06:21:32.082Z,1.66
2024-02-26T06:22:31.937Z,1.70
2024-02-26T06:23:31.898Z,1.73
2024-02-26T06:24:32.600Z,1.80
2024-02-26T06:25:31.850Z,1.67
2024-02-26T06:26:31.782Z,1.73
2024-02-26T06:27:31.803Z,1.78
2024-02-26T06:28:31.716Z,1.73
2024-02-26T06:29:31.676Z,1.84
2024-02-26T06:30:31.937Z,1.84
2024-02-26T06:31:31.609Z,2.00
2024-02-26T06:32:31.702Z,2.11
2024-02-26T06:33:31.740Z,2.24
2024-02-26T06:34:31.553Z,2.35
2024-02-26T06:35:31.461Z,2.50
2024-02-26T06:36:31.450Z,2.50
2024-02-26T06:37:31.361Z,2.61
2024-02-26T06:38:31.321Z,2.67
2024-02-26T06:39:31.331Z,2.65
2024-02-26T06:40:31.531Z,2.77
2024-02-26T06:41:31.244Z,2.89
2024-02-26T06:42:31.216Z,2.85
2024-02-26T06:43:31.153Z,2.87
2024-02-26T06:44:31.094Z,2.86
2024-02-26T06:45:31.250Z,2.89
2024-02-26T06:46:31.035Z,2.89
2024-02-26T06:47:31.003Z,2.87
2024-02-26T06:48:32.665Z,2.97
2024-02-26T06:49:31.019Z,2.93
2024-02-26T06:50:31.193Z,3.04
2024-02-26T06:51:30.923Z,3.00
2024-02-26T06:52:30.956Z,3.04
2024-02-26T06:53:30.772Z,3.00
2024-02-26T06:54:30.849Z,3.03
2024-02-26T06:55:31.401Z,3.08
2024-02-26T06:56:30.652Z,3.01
2024-02-26T06:57:30.688Z,3.00
2024-02-26T06:58:30.567Z,3.07
2024-02-26T06:59:30.946Z,3.10
2024-02-26T07:00:30.520Z,3.07
2024-02-26T07:01:30.513Z,3.01
2024-02-26T07:02:30.414Z,3.11
2024-02-26T07:03:30.480Z,3.18
2024-02-26T07:04:30.700Z,3.26
2024-02-26T07:05:37.369Z,3.19
2024-02-26T07:06:30.296Z,3.31
2024-02-26T07:07:30.258Z,3.26
2024-02-26T07:08:30.244Z,3.25
2024-02-26T07:09:30.827Z,3.25
2024-02-26T07:10:30.116Z,3.23
2024-02-26T07:11:30.128Z,3.21
2024-02-26T07:12:30.123Z,3.26
2024-02-26T07:13:30.021Z,3.37
2024-02-26T07:14:30.259Z,3.29
2024-02-26T07:15:29.990Z,3.41
2024-02-26T07:16:29.886Z,3.36
2024-02-26T07:17:29.889Z,3.34
2024-02-26T07:18:29.941Z,3.44
2024-02-26T07:19:29.849Z,3.36
2024-02-26T07:20:29.753Z,3.40
2024-02-26T07:21:29.779Z,3.40
2024-02-26T07:22:29.666Z,3.55
2024-02-26T07:23:29.624Z,3.56
2024-02-26T07:24:29.702Z,3.63
2024-02-26T07:25:29.572Z,3.60
2024-02-26T07:26:29.551Z,3.77
2024-02-26T07:27:29.535Z,3.76
2024-02-26T07:28:29.459Z,3.81
2024-02-26T07:29:29.682Z,3.86
2024-02-26T07:30:29.415Z,3.87
2024-02-26T07:31:29.329Z,3.96
2024-02-26T07:32:29.337Z,4.04
2024-02-26T07:33:29.441Z,4.13
2024-02-26T07:34:29.403Z,4.16
2024-02-26T07:35:29.197Z,4.22
2024-02-26T07:36:29.247Z,4.40
2024-02-26T07:37:29.123Z,4.48
2024-02-26T07:38:37.065Z,4.62
2024-02-26T07:39:29.374Z,4.68
2024-02-26T07:40:28.995Z,4.82
2024-02-26T07:41:29.023Z,4.75
2024-02-26T07:42:28.968Z,4.87
2024-02-26T07:43:28.885Z,4.90
2024-02-26T07:44:29.140Z,4.93
2024-02-26T07:45:28.866Z,4.99
2024-02-26T07:46:28.800Z,5.11
2024-02-26T07:47:28.770Z,4.99
2024-02-26T07:48:28.801Z,5.10
2024-02-26T07:49:29.056Z,5.21
2024-02-26T07:50:28.624Z,5.20
2024-02-26T07:51:28.662Z,5.28
2024-02-26T07:52:28.554Z,5.35
2024-02-26T07:53:28.521Z,5.41
2024-02-26T07:54:28.562Z,5.50
2024-02-26T07:55:28.484Z,5.54
2024-02-26T07:56:28.424Z,5.56
2024-02-26T07:57:28.438Z,5.65
2024-02-26T07:58:28.332Z,5.71
2024-02-26T07:59:28.594Z,5.91
2024-02-26T08:00:28.382Z,5.83
2024-02-26T08:01:28.306Z,5.94
2024-02-26T08:02:28.198Z,5.99
2024-02-26T08:03:28.232Z,6.07
2024-02-26T08:04:28.474Z,6.01
2024-02-26T08:05:28.151Z,6.08
2024-02-26T08:06:28.092Z,6.27
2024-02-26T08:07:28.042Z,6.26
2024-02-26T08:08:27.968Z,6.28
2024-02-26T08:09:28.299Z,6.36
2024-02-26T08:10:31.327Z,6.46
2024-02-26T08:11:27.887Z,6.51
2024-02-26T08:12:27.931Z,6.64
2024-02-26T08:13:27.808Z,6.62
2024-02-26T08:14:28.049Z,6.67
2024-02-26T08:15:27.818Z,6.74
2024-02-26T08:16:28.063Z,6.75
2024-02-26T08:17:27.669Z,6.79
2024-02-26T08:18:27.904Z,6.92
2024-02-26T08:19:27.835Z,7.00
2024-02-26T08:20:27.565Z,7.05
2024-02-26T08:21:27.582Z,7.02
2024-02-26T08:22:27.488Z,7.10
2024-02-26T08:23:27.495Z,7.06
2024-02-26T08:24:27.770Z,7.11
2024-02-26T08:25:27.375Z,7.13
2024-02-26T08:26:27.351Z,7.13
2024-02-26T08:27:27.330Z,7.18
2024-02-26T08:28:27.270Z,7.24
2024-02-26T08:29:27.268Z,7.25
2024-02-26T08:30:27.374Z,7.35
2024-02-26T08:31:27.160Z,7.45
2024-02-26T08:32:27.147Z,7.51
2024-02-26T08:33:27.428Z,7.60
2024-02-26T08:34:27.239Z,7.63
2024-02-26T08:35:27.037Z,7.60
2024-02-26T08:36:27.066Z,7.75
2024-02-26T08:37:26.947Z,7.73
2024-02-26T08:38:27.185Z,7.85
2024-02-26T08:39:26.965Z,7.80
2024-02-26T08:40:26.859Z,7.76
2024-02-26T08:41:26.826Z,7.80
2024-02-26T08:42:26.817Z,7.82
2024-02-26T08:43:27.022Z,7.76
2024-02-26T08:44:26.703Z,7.82
2024-02-26T08:45:29.833Z,7.83
2024-02-26T08:46:26.636Z,7.87
2024-02-26T08:47:26.634Z,7.87
2024-02-26T08:48:27.000Z,8.08
2024-02-26T08:49:26.644Z,8.08
2024-02-26T08:50:26.501Z,8.00
2024-02-26T08:51:26.512Z,8.05
2024-02-26T08:52:26.423Z,8.20
2024-02-26T08:53:34.991Z,8.23
2024-02-26T08:54:26.407Z,8.16
2024-02-26T08:55:26.332Z,8.31
2024-02-26T08:56:26.314Z,8.37
2024-02-26T08:57:26.317Z,8.48
2024-02-26T08:58:26.225Z,8.46
2024-02-26T08:59:26.217Z,8.41
2024-02-26T09:00:26.236Z,8.49
2024-02-26T09:01:26.171Z,8.56
2024-02-26T09:02:26.116Z,8.64
2024-02-26T09:03:26.112Z,8.76
2024-02-26T09:04:26.062Z,8.79
2024-02-26T09:05:25.977Z,8.97
2024-02-26T09:06:26.018Z,9.00
2024-02-26T09:07:25.963Z,9.02
2024-02-26T09:08:25.877Z,9.16
2024-02-26T09:09:25.927Z,9.14
2024-02-26T09:10:25.806Z,9.21
2024-02-26T09:11:25.855Z,9.25
2024-02-26T09:12:26.140Z,9.26
2024-02-26T09:13:25.702Z,9.26
2024-02-26T09:14:28.286Z,9.22
2024-02-26T09:15:25.698Z,9.28
2024-02-26T09:16:25.613Z,9.21
2024-02-26T09:17:25.647Z,9.21
2024-02-26T09:18:25.763Z,9.23
2024-02-26T09:19:25.695Z,9.16
2024-02-26T09:20:25.579Z,9.18
2024-02-26T09:21:25.499Z,8.97
2024-02-26T09:22:25.430Z,9.00
2024-02-26T09:23:25.367Z,9.08
2024-02-26T09:24:25.399Z,9.11
2024-02-26T09:25:25.302Z,9.16
2024-02-26T09:26:25.297Z,9.16
2024-02-26T09:27:25.360Z,9.16
2024-02-26T09:28:25.199Z,9.13
2024-02-26T09:29:25.167Z,9.18
2024-02-26T09:30:25.184Z,9.06
2024-02-26T09:31:25.378Z,9.02
2024-02-26T09:32:25.054Z,9.00
2024-02-26T09:33:25.275Z,9.04
2024-02-26T09:34:25.041Z,9.11
2024-02-26T09:35:24.971Z,9.03
2024-02-26T09:36:25.335Z,9.19
2024-02-26T09:37:24.886Z,9.22
2024-02-26T09:38:24.985Z,9.22
2024-02-26T09:39:24.852Z,9.28
2024-02-26T09:40:24.861Z,9.41
2024-02-26T09:41:25.036Z,9.37
2024-02-26T09:42:24.756Z,9.39
2024-02-26T09:43:24.705Z,9.48
2024-02-26T09:44:24.646Z,9.41
2024-02-26T09:45:24.616Z,9.39
2024-02-26T09:46:24.965Z,9.43
2024-02-26T09:47:24.560Z,9.55
2024-02-26T09:48:24.582Z,9.54
2024-02-26T09:49:24.549Z,9.47
2024-02-26T09:50:24.853Z,9.44
2024-02-26T09:51:24.432Z,9.41
2024-02-26T09:52:24.502Z,9.55
2024-02-26T09:53:24.340Z,9.51
2024-02-26T09:54:24.451Z,9.59
2024-02-26T09:55:24.269Z,9.64
2024-02-26T09:56:24.306Z,9.62
2024-02-26T09:57:24.207Z,9.79
2024-02-26T09:58:24.262Z,9.74
2024-02-26T09:59:24.145Z,9.79
2024-02-26T10:00:24.298Z,9.91
2024-02-26T10:01:24.404Z,9.97
2024-02-26T10:02:24.031Z,10.12
2024-02-26T10:03:24.063Z,10.19
2024-02-26T10:04:24.073Z,10.17
2024-02-26T10:05:23.986Z,10.26
2024-02-26T10:06:24.264Z,10.28
2024-02-26T10:07:23.921Z,10.33
2024-02-26T10:08:23.935Z,10.48
2024-02-26T10:09:23.852Z,10.48
2024-02-26T10:10:23.778Z,10.54
2024-02-26T10:11:23.825Z,10.60
2024-02-26T10:12:24.055Z,10.67
2024-02-26T10:13:23.676Z,10.64
2024-02-26T10:14:23.625Z,10.68
2024-02-26T10:15:23.622Z,10.69
2024-02-26T10:16:23.597Z,10.82
2024-02-26T10:17:23.559Z,10.79
2024-02-26T10:18:23.634Z,10.89
2024-02-26T10:19:23.553Z,10.87
2024-02-26T10:20:23.687Z,10.90
2024-02-26T10:21:24.747Z,10.86
2024-02-26T10:22:23.362Z,10.92
2024-02-26T10:23:23.352Z,10.82
2024-02-26T10:24:23.500Z,10.96
2024-02-26T10:25:23.264Z,11.07
2024-02-26T10:26:23.547Z,11.10
2024-02-26T10:27:23.196Z,11.12
2024-02-26T10:28:23.155Z,11.10
2024-02-26T10:29:23.124Z,11.14
2024-02-26T10:30:23.334Z,11.26
2024-02-26T10:31:23.575Z,11.30
2024-02-26T10:32:23.030Z,11.25
2024-02-26T10:33:23.389Z,11.26
2024-02-26T10:34:23.059Z,11.29
2024-02-26T10:35:23.013Z,11.27
2024-02-26T10:36:22.952Z,11.25
2024-02-26T10:37:22.863Z,11.15
2024-02-26T10:38:22.852Z,11.18
2024-02-26T10:39:23.168Z,11.19
2024-02-26T10:40:22.870Z,11.29
2024-02-26T10:41:23.007Z,11.35
2024-02-26T10:42:22.734Z,11.41
2024-02-26T10:43:22.657Z,11.48
2024-02-26T10:44:22.625Z,11.48
2024-02-26T10:45:22.950Z,11.40
2024-02-26T10:46:23.166Z,11.36
2024-02-26T10:47:22.529Z,11.47
2024-02-26T10:48:22.651Z,11.44
2024-02-26T10:49:23.277Z,11.50
2024-02-26T10:50:22.704Z,11.60
2024-02-26T10:51:22.447Z,11.63
2024-02-26T10:52:22.363Z,11.72
2024-02-26T10:53:22.339Z,11.80
2024-02-26T10:54:22.389Z,11.95
2024-02-26T10:55:22.502Z,11.94
2024-02-26T10:56:22.322Z,11.91
2024-02-26T10:57:22.341Z,11.91
2024-02-26T10:58:22.168Z,11.91
2024-02-26T10:59:22.364Z,11.83
2024-02-26T11:00:22.230Z,11.81
2024-02-26T11:01:22.686Z,11.77
2024-02-26T11:02:22.048Z,11.77
2024-02-26T11:03:22.119Z,11.81
2024-02-26T11:04:22.264Z,11.88
2024-02-26T11:05:22.004Z,11.90
2024-02-26T11:06:22.054Z,11.80
2024-02-26T11:07:21.916Z,11.91
2024-02-26T11:08:21.847Z,11.88
2024-02-26T11:09:21.821Z,11.75
2024-02-26T11:10:21.790Z,11.78
2024-02-26T11:11:21.764Z,11.80
2024-02-26T11:12:21.818Z,11.84
2024-02-26T11:13:21.669Z,11.87
2024-02-26T11:14:21.669Z,11.91
2024-02-26T11:15:21.656Z,12.02
2024-02-26T11:16:22.174Z,11.97
2024-02-26T11:17:22.254Z,12.09
2024-02-26T11:18:21.742Z,12.21
2024-02-26T11:19:21.924Z,12.25
2024-02-26T11:20:21.977Z,12.22
2024-02-26T11:21:21.409Z,12.40
2024-02-26T11:22:25.246Z,12.46
2024-02-26T11:23:21.343Z,12.40
2024-02-26T11:24:21.380Z,12.32
2024-02-26T11:25:21.285Z,12.42
2024-02-26T11:26:21.408Z,12.42
2024-02-26T11:27:21.318Z,12.42
2024-02-26T11:28:21.275Z,12.54
2024-02-26T11:29:21.444Z,12.72
2024-02-26T11:30:21.212Z,12.76
2024-02-26T11:31:21.093Z,12.73
2024-02-26T11:32:21.044Z,12.79
2024-02-26T11:33:21.467Z,12.79
2024-02-26T11:34:21.087Z,12.68
2024-02-26T11:35:20.951Z,12.78
2024-02-26T11:36:21.079Z,12.90
2024-02-26T11:37:20.926Z,12.86
2024-02-26T11:38:20.875Z,12.87
2024-02-26T11:39:20.856Z,12.87
2024-02-26T11:40:20.820Z,12.94
2024-02-26T11:41:20.757Z,13.09
2024-02-26T11:42:20.779Z,12.98
2024-02-26T11:43:20.991Z,12.90
2024-02-26T11:44:20.755Z,13.00
2024-02-26T11:45:20.689Z,13.05
2024-02-26T11:46:20.594Z,13.12
2024-02-26T11:47:20.567Z,13.18
2024-02-26T11:48:21.099Z,13.16
2024-02-26T11:49:20.603Z,13.19
2024-02-26T11:50:20.476Z,13.25
2024-02-26T11:51:20.595Z,13.09
2024-02-26T11:52:20.418Z,13.22
2024-02-26T11:53:20.377Z,13.20
2024-02-26T11:54:20.381Z,13.22
2024-02-26T11:55:20.329Z,13.31
2024-02-26T11:56:20.272Z,13.25
2024-02-26T11:57:22.177Z,13.28
2024-02-26T11:58:20.218Z,13.19
2024-02-26T11:59:20.255Z,13.35
2024-02-26T12:00:20.267Z,13.38
2024-02-26T12:01:20.146Z,13.46
2024-02-26T12:02:20.090Z,13.62
2024-02-26T12:03:20.106Z,13.78
2024-02-26T12:04:20.023Z,13.78
2024-02-26T12:05:20.086Z,13.87
2024-02-26T12:06:20.041Z,13.68
2024-02-26T12:07:19.981Z,13.67
2024-02-26T12:08:19.945Z,13.67
2024-02-26T12:09:19.919Z,13.56
2024-02-26T12:10:19.875Z,13.67
2024-02-26T12:11:19.816Z,13.65
2024-02-26T12:12:19.993Z,13.57
2024-02-26T12:13:20.401Z,13.60
2024-02-26T12:14:19.730Z,13.65
2024-02-26T12:15:19.706Z,13.53
2024-02-26T12:16:19.731Z,13.30
2024-02-26T12:17:19.608Z,13.39
2024-02-26T12:18:20.124Z,13.49
2024-02-26T12:19:19.619Z,13.56
2024-02-26T12:20:19.570Z,13.49
2024-02-26T12:21:19.558Z,13.35
2024-02-26T12:22:19.464Z,13.28
2024-02-26T12:23:19.714Z,13.27
2024-02-26T12:24:19.462Z,13.38
2024-02-26T12:25:19.384Z,13.46
2024-02-26T12:26:19.342Z,13.54
2024-02-26T12:27:19.356Z,13.53
2024-02-26T12:28:19.534Z,13.53
2024-02-26T12:29:19.231Z,13.57
2024-02-26T12:30:19.243Z,13.57
2024-02-26T12:31:19.170Z,13.46
2024-02-26T12:32:19.243Z,13.39
2024-02-26T12:33:19.640Z,13.38
2024-02-26T12:34:19.189Z,13.31
2024-02-26T12:35:19.075Z,13.42
2024-02-26T12:36:19.094Z,13.33
2024-02-26T12:37:19.010Z,13.38
2024-02-26T12:38:18.968Z,13.28
2024-02-26T12:39:18.951Z,13.27
2024-02-26T12:40:18.913Z,13.22
2024-02-26T12:41:18.858Z,13.31
2024-02-26T12:42:18.862Z,13.28
2024-02-26T12:43:19.236Z,13.41
2024-02-26T12:44:18.755Z,13.30
2024-02-26T12:45:18.999Z,13.39
2024-02-26T12:46:18.689Z,13.28
2024-02-26T12:47:18.657Z,13.25
2024-02-26T12:48:18.888Z,13.08
2024-02-26T12:49:19.025Z,13.12
2024-02-26T12:50:18.616Z,13.11
2024-02-26T12:51:18.572Z,13.05
2024-02-26T12:52:18.516Z,13.13
2024-02-26T12:53:18.511Z,13.15
2024-02-26T12:54:18.473Z,13.22
2024-02-26T12:55:18.415Z,13.25
2024-02-26T12:56:18.374Z,13.28
2024-02-26T12:57:18.368Z,13.27
2024-02-26T12:58:18.346Z,13.42
2024-02-26T12:59:18.269Z,13.46
2024-02-26T13:00:18.271Z,13.44
2024-02-26T13:01:18.253Z,13.44
2024-02-26T13:02:18.192Z,13.33
2024-02-26T13:03:18.222Z,13.30
2024-02-26T13:04:18.266Z,13.39
2024-02-26T13:05:18.080Z,13.41
2024-02-26T13:06:18.128Z,13.41
2024-02-26T13:07:18.062Z,13.42
2024-02-26T13:08:18.011Z,13.52
2024-02-26T13:09:17.970Z,13.53
2024-02-26T13:10:17.922Z,13.41
2024-02-26T13:11:17.969Z,13.42
2024-02-26T13:12:17.912Z,13.49